EDSE weather

Göppingen-Bezgenriet Airport
Baden-Württemberg, Germany

Public forecast

Using degrees Celsius for public forecast. Weather courtesy of forecast.io.

METAR (pilot weather report)

Closest report is Stuttgart Airport, 16.1 nm (29.7 km) W. Retrieved 2019/09/23 02:20 UTC (0 seconds ago):

EDDS 230220Z 24004KT 150V310 9999 -RA FEW012 BKN044 14/13 Q1014 RERA

TAF (pilot weather forecast)

Forecast is more than 12 hours old.

Closest forecast is Stuttgart Airport, 16.1 nm (29.7 km) W. Retrieved 2019/09/22 00:27 UTC (1 day ago):

TAF TAF EDDS 222300Z 2300/2324 VRB03KT CAVOK BECMG 2300/2302 25006KT TEMPO 2303/2310 4000 RA BKN012 BECMG 2317/2319 VRB03KT